Time;durP1;ratioP1;P1;durP2;ratioP2;P2;SDS_P1;SDS_P2;PMS_P1;PMS_P2;Temp;Humidity;BMP_temperature;BMP_pressure;BME280_temperature;BME280_humidity;BME280_pressure;Samples;Min_cycle;Max_cycle;Signal;HPM_P1;HPM_P2
2023/05/22 00:00:31;;;;;;;8.90;8.00;;;17.10;99.90;;;;;;5008773;28;20288;-80
2023/05/22 00:02:58;;;;;;;8.23;7.28;;;17.20;99.90;;;;;;5006973;28;20315;-79
2023/05/22 00:05:24;;;;;;;8.17;7.37;;;17.10;99.90;;;;;;4998114;28;20233;-79
2023/05/22 00:07:51;;;;;;;7.80;6.93;;;17.10;99.90;;;;;;5005482;28;20309;-79
2023/05/22 00:10:18;;;;;;;9.80;7.50;;;17.10;99.90;;;;;;5007794;28;20220;-80
2023/05/22 00:12:44;;;;;;;9.07;7.50;;;17.10;99.90;;;;;;5001194;28;20222;-79
2023/05/22 00:15:13;;;;;;;9.60;7.17;;;17.10;99.90;;;;;;5006001;28;20231;-78
2023/05/22 00:17:41;;;;;;;8.23;7.17;;;17.10;99.90;;;;;;5004148;28;20229;-79
2023/05/22 00:20:09;;;;;;;6.72;6.03;;;17.10;99.90;;;;;;5006227;28;20217;-79
2023/05/22 00:22:37;;;;;;;7.50;6.80;;;17.10;99.90;;;;;;5004490;28;20229;-79
2023/05/22 00:25:04;;;;;;;8.10;7.30;;;17.10;99.90;;;;;;5002974;28;20221;-79
2023/05/22 00:27:31;;;;;;;7.57;6.63;;;17.10;99.90;;;;;;5003188;28;20324;-80
2023/05/22 00:29:58;;;;;;;8.33;6.70;;;17.10;99.90;;;;;;5018861;28;20222;-78
2023/05/22 00:32:27;;;;;;;8.05;7.25;;;17.00;99.90;;;;;;5018288;28;20917;-78
2023/05/22 00:34:54;;;;;;;8.27;6.97;;;17.00;99.90;;;;;;5013762;28;20550;-78
2023/05/22 00:37:21;;;;;;;7.27;6.50;;;17.00;99.90;;;;;;5016190;28;20236;-78
2023/05/22 00:39:49;;;;;;;8.33;7.43;;;17.00;99.90;;;;;;5003119;28;20229;-79
2023/05/22 00:42:15;;;;;;;8.20;6.83;;;17.00;99.90;;;;;;5013634;28;21078;-78
2023/05/22 00:44:42;;;;;;;10.37;7.23;;;17.00;99.90;;;;;;5024691;28;20234;-79
2023/05/22 00:47:09;;;;;;;7.27;6.57;;;16.90;99.90;;;;;;5009638;28;20510;-79
2023/05/22 00:49:37;;;;;;;7.80;7.00;;;16.90;99.90;;;;;;5001377;28;20225;-79
2023/05/22 00:52:04;;;;;;;8.03;6.63;;;16.90;99.90;;;;;;4997115;28;20209;-79
2023/05/22 00:54:32;;;;;;;7.70;7.00;;;16.90;99.90;;;;;;5000675;28;20225;-78
2023/05/22 00:57:00;;;;;;;8.13;6.97;;;16.90;99.90;;;;;;5018573;28;20225;-78
2023/05/22 00:59:27;;;;;;;7.67;6.93;;;16.80;99.90;;;;;;5003902;28;20225;-78
2023/05/22 01:01:55;;;;;;;8.03;7.00;;;16.80;99.90;;;;;;5003741;28;20217;-78
2023/05/22 01:04:23;;;;;;;7.83;6.93;;;16.80;99.90;;;;;;4999633;28;20637;-78
2023/05/22 01:06:51;;;;;;;9.93;7.00;;;16.70;99.90;;;;;;5008180;28;20239;-79
2023/05/22 01:09:18;;;;;;;7.15;6.45;;;16.70;99.90;;;;;;5017802;28;20256;-79
2023/05/22 01:11:55;;;;;;;7.93;6.47;;;16.70;99.90;;;;;;5015091;28;20888;-79
2023/05/22 01:14:29;;;;;;;8.00;7.03;;;16.70;99.90;;;;;;5007847;28;20225;-79
2023/05/22 01:17:07;;;;;;;10.40;7.33;;;16.60;99.90;;;;;;5014827;28;20307;-79
2023/05/22 01:19:59;;;;;;;8.40;7.43;;;16.60;99.90;;;;;;5007496;28;20312;-78
2023/05/22 01:22:42;;;;;;;9.17;6.97;;;16.60;99.90;;;;;;5001671;28;20316;-78
2023/05/22 01:25:30;;;;;;;9.30;6.93;;;16.50;99.90;;;;;;4997468;28;20237;-78
2023/05/22 01:28:24;;;;;;;9.23;7.00;;;16.50;99.90;;;;;;5011184;28;20230;-77
2023/05/22 01:31:00;;;;;;;8.00;6.97;;;16.50;99.90;;;;;;5002164;28;20668;-78
2023/05/22 01:33:31;;;;;;;8.77;6.77;;;16.40;99.90;;;;;;5000720;28;20233;-78
2023/05/22 01:36:01;;;;;;;8.53;7.20;;;16.40;99.90;;;;;;4995903;28;20225;-77
2023/05/22 01:38:28;;;;;;;7.40;6.70;;;16.30;99.90;;;;;;5017395;28;20316;-78
2023/05/22 01:40:56;;;;;;;7.90;6.57;;;16.30;99.90;;;;;;5001304;28;20228;-78
2023/05/22 01:43:23;;;;;;;7.67;6.70;;;16.30;99.90;;;;;;5008059;28;20260;-78
2023/05/22 01:45:50;;;;;;;8.70;6.67;;;16.20;99.90;;;;;;5013972;28;20884;-78
2023/05/22 01:48:18;;;;;;;8.33;6.33;;;16.20;99.90;;;;;;5015449;28;20284;-77
2023/05/22 01:50:50;;;;;;;9.83;7.00;;;16.20;99.90;;;;;;4998077;28;20232;-78
2023/05/22 01:53:23;;;;;;;7.60;6.80;;;16.10;99.90;;;;;;4999374;28;20744;-77
2023/05/22 01:55:57;;;;;;;9.33;6.53;;;16.10;99.90;;;;;;5025052;28;20227;-78
2023/05/22 01:58:30;;;;;;;8.33;7.27;;;16.00;99.90;;;;;;5004399;28;20229;-77
2023/05/22 02:01:00;;;;;;;7.37;6.67;;;16.00;99.90;;;;;;5002499;28;20224;-78
2023/05/22 02:03:31;;;;;;;8.17;6.83;;;16.00;99.90;;;;;;5002929;28;20328;-81
2023/05/22 02:06:02;;;;;;;10.27;7.13;;;16.00;99.90;;;;;;5019109;28;20231;-82
2023/05/22 02:08:30;;;;;;;7.23;6.53;;;16.00;99.90;;;;;;4999767;28;20245;-82
2023/05/22 02:10:59;;;;;;;7.43;6.70;;;16.00;99.90;;;;;;5009023;28;20255;-82
2023/05/22 02:13:25;;;;;;;7.93;6.60;;;15.90;99.90;;;;;;5022953;28;20328;-79
2023/05/22 02:15:54;;;;;;;7.20;6.50;;;15.90;99.90;;;;;;5019350;28;20321;-83
2023/05/22 02:18:29;;;;;;;7.63;6.50;;;15.90;99.90;;;;;;5019527;28;20263;-84
2023/05/22 02:20:57;;;;;;;7.70;6.87;;;15.90;99.90;;;;;;5023434;28;20216;-80
2023/05/22 02:23:25;;;;;;;9.90;6.67;;;15.90;99.90;;;;;;5025554;28;20295;-82
2023/05/22 02:25:52;;;;;;;8.40;6.53;;;15.80;99.90;;;;;;5018352;28;20763;-82
2023/05/22 02:28:19;;;;;;;8.30;6.70;;;15.80;99.90;;;;;;5010712;28;20214;-82
2023/05/22 02:30:46;;;;;;;7.53;6.53;;;15.80;99.90;;;;;;5022180;28;20216;-83
2023/05/22 02:33:16;;;;;;;8.10;7.23;;;15.80;99.90;;;;;;5013349;28;20239;-81
2023/05/22 02:35:45;;;;;;;8.27;6.83;;;15.80;99.90;;;;;;5017405;28;20303;-81
2023/05/22 02:38:12;;;;;;;7.73;6.77;;;15.70;99.90;;;;;;4999619;28;20255;-80
2023/05/22 02:40:39;;;;;;;8.47;7.23;;;15.70;99.90;;;;;;5001741;28;20917;-81
2023/05/22 02:43:06;;;;;;;7.87;7.07;;;15.70;99.90;;;;;;5025059;28;20307;-82
2023/05/22 02:45:33;;;;;;;8.87;7.03;;;15.70;99.90;;;;;;5022457;28;20228;-83
2023/05/22 02:48:00;;;;;;;8.47;6.60;;;15.70;99.90;;;;;;5006314;28;20241;-80
2023/05/22 02:50:27;;;;;;;6.93;6.23;;;15.70;99.90;;;;;;5026696;28;20304;-80
2023/05/22 02:52:55;;;;;;;6.67;6.03;;;15.70;99.90;;;;;;5005598;28;20228;-80
2023/05/22 02:55:22;;;;;;;7.40;6.60;;;15.70;99.90;;;;;;5008897;28;20718;-84
2023/05/22 02:57:48;;;;;;;9.43;6.23;;;15.70;99.90;;;;;;5013584;28;20225;-81
2023/05/22 03:00:16;;;;;;;7.40;6.60;;;15.70;99.90;;;;;;5001491;28;20308;-82
2023/05/22 03:02:43;;;;;;;7.27;6.27;;;15.70;99.90;;;;;;5002288;28;20221;-81
2023/05/22 03:05:09;;;;;;;7.60;5.87;;;15.70;99.90;;;;;;5026541;28;20304;-86
2023/05/22 03:07:36;;;;;;;6.47;5.70;;;15.70;99.90;;;;;;5029316;28;20316;-83
2023/05/22 03:10:06;;;;;;;8.97;6.50;;;15.70;99.90;;;;;;5033913;28;20231;-81
2023/05/22 03:12:33;;;;;;;7.47;6.30;;;15.70;99.90;;;;;;5027066;28;20233;-82
2023/05/22 03:15:00;;;;;;;7.40;6.00;;;15.70;99.90;;;;;;5021297;28;20339;-83
2023/05/22 03:17:27;;;;;;;6.67;6.00;;;15.70;99.90;;;;;;5046753;28;20224;-83
2023/05/22 03:19:54;;;;;;;7.00;6.17;;;15.70;99.90;;;;;;5022344;28;20264;-82
2023/05/22 03:22:22;;;;;;;9.60;6.23;;;15.70;99.90;;;;;;5012030;28;20236;-82
2023/05/22 03:24:48;;;;;;;6.47;5.80;;;15.70;99.90;;;;;;5010519;28;20785;-81
2023/05/22 03:27:17;;;;;;;6.60;5.80;;;15.80;99.90;;;;;;5028817;28;21143;-81
2023/05/22 03:29:43;;;;;;;9.00;5.83;;;15.80;99.90;;;;;;5026505;28;20781;-83
2023/05/22 03:32:10;;;;;;;7.20;5.90;;;15.80;99.90;;;;;;5029229;28;20518;-83
2023/05/22 03:34:37;;;;;;;7.43;5.77;;;15.80;99.90;;;;;;5026977;28;20862;-82
2023/05/22 03:37:07;;;;;;;6.37;5.63;;;15.80;99.90;;;;;;5047310;28;20220;-82
2023/05/22 03:39:35;;;;;;;7.90;5.67;;;15.80;99.90;;;;;;5048192;28;20228;-83
2023/05/22 03:42:12;;;;;;;7.80;5.97;;;15.80;99.90;;;;;;5026449;28;20236;-81
2023/05/22 03:44:40;;;;;;;6.90;6.20;;;15.80;99.90;;;;;;5007947;28;20299;-82
2023/05/22 03:47:06;;;;;;;6.60;5.73;;;15.80;99.90;;;;;;5008776;28;20252;-82
2023/05/22 03:49:33;;;;;;;6.90;6.20;;;15.80;99.90;;;;;;5009929;28;20230;-85
2023/05/22 03:52:00;;;;;;;6.43;5.70;;;15.90;99.90;;;;;;5007918;28;20236;-81
2023/05/22 03:54:26;;;;;;;6.93;5.97;;;15.90;99.90;;;;;;5010392;28;20239;-83
2023/05/22 03:56:53;;;;;;;6.60;5.80;;;15.90;99.90;;;;;;5006671;28;20371;-83
2023/05/22 03:59:20;;;;;;;6.63;5.90;;;16.00;99.90;;;;;;5010326;28;20243;-83
2023/05/22 04:01:49;;;;;;;6.80;5.33;;;16.00;99.90;;;;;;5016405;28;20225;-82
2023/05/22 04:04:18;;;;;;;7.37;5.73;;;16.00;99.90;;;;;;5023709;28;20221;-83
2023/05/22 04:06:45;;;;;;;6.30;5.50;;;16.00;99.90;;;;;;5024354;28;20224;-82
2023/05/22 04:09:15;;;;;;;7.77;5.63;;;16.10;99.90;;;;;;5013411;28;20222;-86
2023/05/22 04:11:42;;;;;;;7.43;5.60;;;16.10;99.90;;;;;;5023672;28;20227;-81
2023/05/22 04:14:09;;;;;;;10.83;5.50;;;16.10;99.90;;;;;;5020759;28;20225;-84
2023/05/22 04:16:36;;;;;;;9.43;5.63;;;16.20;99.90;;;;;;5027217;28;20232;-82
2023/05/22 04:19:04;;;;;;;6.20;5.40;;;16.20;99.90;;;;;;5007845;28;20225;-81
2023/05/22 04:21:32;;;;;;;6.07;5.00;;;16.30;99.90;;;;;;5029004;28;20316;-83
2023/05/22 04:24:00;;;;;;;7.73;5.30;;;16.40;99.90;;;;;;5025587;28;20221;-82
2023/05/22 04:26:28;;;;;;;5.20;4.60;;;16.50;99.90;;;;;;5011546;28;20711;-82
2023/05/22 04:28:55;;;;;;;6.23;5.03;;;16.50;99.90;;;;;;5016255;28;20253;-82
2023/05/22 04:31:22;;;;;;;5.17;4.67;;;16.60;99.90;;;;;;5013513;28;20220;-82
2023/05/22 04:33:49;;;;;;;8.33;5.20;;;16.60;99.90;;;;;;5007191;28;20233;-77
2023/05/22 04:36:21;;;;;;;5.55;4.85;;;16.70;99.90;;;;;;5016331;28;20212;-78
2023/05/22 04:38:49;;;;;;;7.00;4.70;;;16.80;99.90;;;;;;5013930;28;20209;-78
2023/05/22 04:41:17;;;;;;;5.13;4.60;;;16.90;99.90;;;;;;5015827;28;20217;-78
2023/05/22 04:43:44;;;;;;;7.13;5.30;;;17.00;99.90;;;;;;5000821;28;20586;-78
2023/05/22 04:46:10;;;;;;;7.00;5.60;;;17.00;99.90;;;;;;5011451;28;20590;-78
2023/05/22 04:48:39;;;;;;;7.77;5.63;;;17.10;99.90;;;;;;5016019;28;20306;-78
2023/05/22 04:51:06;;;;;;;6.70;5.07;;;17.20;99.90;;;;;;5019155;28;20229;-78
2023/05/22 04:53:34;;;;;;;5.97;4.95;;;17.30;99.90;;;;;;5000174;28;20363;-78
2023/05/22 04:56:02;;;;;;;5.50;5.00;;;17.30;99.90;;;;;;4995310;28;20225;-79
2023/05/22 04:58:30;;;;;;;6.93;5.10;;;17.40;99.90;;;;;;5014103;28;20222;-78
2023/05/22 05:00:58;;;;;;;6.80;5.10;;;17.40;99.90;;;;;;5015156;28;20494;-78
2023/05/22 05:03:25;;;;;;;6.75;5.00;;;17.60;99.90;;;;;;4999357;28;20240;-79
2023/05/22 05:05:52;;;;;;;5.53;5.00;;;17.60;99.90;;;;;;4997663;28;20229;-78
2023/05/22 05:08:19;;;;;;;6.28;5.13;;;17.70;99.90;;;;;;5009878;28;20221;-78
2023/05/22 05:10:47;;;;;;;5.22;4.72;;;17.80;99.90;;;;;;5011432;28;20574;-79
2023/05/22 05:13:14;;;;;;;6.45;4.40;;;17.90;99.90;;;;;;4991812;28;20217;-78
2023/05/22 05:15:40;;;;;;;5.55;5.05;;;18.00;99.90;;;;;;5012285;28;20221;-79
2023/05/22 05:18:07;;;;;;;6.25;4.70;;;18.10;99.90;;;;;;5003697;28;20217;-80
2023/05/22 05:20:34;;;;;;;7.50;4.97;;;18.30;99.90;;;;;;5019903;28;20221;-79
2023/05/22 05:23:01;;;;;;;6.53;4.60;;;18.40;99.90;;;;;;5033072;28;20228;-80
2023/05/22 05:25:28;;;;;;;8.27;4.82;;;18.50;99.90;;;;;;5023334;28;20225;-80
2023/05/22 05:27:57;;;;;;;5.50;4.30;;;18.60;99.90;;;;;;5003539;28;20293;-79
2023/05/22 05:30:24;;;;;;;7.60;4.53;;;18.70;99.80;;;;;;5030253;28;21270;-80
2023/05/22 05:33:03;;;;;;;4.70;4.20;;;18.80;99.70;;;;;;5012255;28;20229;-81
2023/05/22 05:35:51;;;;;;;5.88;4.82;;;19.00;99.60;;;;;;5008448;28;20232;-81
2023/05/22 05:38:20;;;;;;;4.53;4.13;;;19.00;99.40;;;;;;5016238;28;20213;-79
2023/05/22 05:40:48;;;;;;;6.35;4.43;;;19.10;99.20;;;;;;5007857;28;20255;-80
2023/05/22 05:43:18;;;;;;;5.57;4.82;;;19.20;99.00;;;;;;5023078;28;20758;-78
2023/05/22 05:45:44;;;;;;;5.63;4.68;;;19.30;99.20;;;;;;5010120;28;20232;-78
2023/05/22 05:48:11;;;;;;;5.20;4.28;;;19.40;98.80;;;;;;5019114;28;20286;-79
2023/05/22 05:50:41;;;;;;;5.00;4.32;;;19.50;98.70;;;;;;5025422;28;20241;-78
2023/05/22 05:53:09;;;;;;;6.57;4.43;;;19.60;98.60;;;;;;5025613;28;20221;-79
2023/05/22 05:55:36;;;;;;;4.80;4.28;;;19.70;98.50;;;;;;5002534;28;20229;-77
2023/05/22 05:58:04;;;;;;;5.28;4.10;;;19.70;98.50;;;;;;5025477;28;20972;-81
2023/05/22 06:01:07;;;;;;;4.30;3.90;;;19.80;98.30;;;;;;5016324;28;21075;-80
2023/05/22 06:03:37;;;;;;;5.90;3.92;;;20.00;98.10;;;;;;4992738;28;20237;-80
2023/05/22 06:06:14;;;;;;;7.43;4.43;;;20.00;98.10;;;;;;5023392;28;20229;-80
2023/05/22 06:09:19;;;;;;;6.45;4.00;;;20.10;98.00;;;;;;5003911;28;20224;-80
2023/05/22 06:12:05;;;;;;;4.38;3.88;;;20.30;98.00;;;;;;5004529;28;20328;-79
2023/05/22 06:14:32;;;;;;;5.47;4.07;;;20.40;97.80;;;;;;5004440;28;20276;-80
2023/05/22 06:17:00;;;;;;;5.35;4.47;;;20.50;97.60;;;;;;5003609;28;20221;-80
2023/05/22 06:19:27;;;;;;;5.78;3.97;;;20.70;97.30;;;;;;5019721;28;20232;-80
2023/05/22 06:21:54;;;;;;;4.60;4.20;;;20.80;97.10;;;;;;5004212;28;20218;-82
2023/05/22 06:24:21;;;;;;;5.47;3.65;;;21.00;97.00;;;;;;5022792;28;20256;-82
2023/05/22 06:26:49;;;;;;;7.07;4.20;;;21.20;96.80;;;;;;5022177;28;20831;-81
2023/05/22 06:29:16;;;;;;;4.20;3.80;;;21.30;96.50;;;;;;5008650;28;20225;-83
2023/05/22 06:31:45;;;;;;;4.40;4.00;;;21.50;96.10;;;;;;5025943;28;20225;-80
2023/05/22 06:34:14;;;;;;;5.45;4.00;;;21.60;96.00;;;;;;4999913;28;20241;-81
2023/05/22 06:36:42;;;;;;;6.72;4.13;;;21.80;95.60;;;;;;5006376;28;20268;-83
2023/05/22 06:39:09;;;;;;;5.93;4.00;;;22.00;95.50;;;;;;5003853;28;21444;-80
2023/05/22 06:41:54;;;;;;;5.78;3.90;;;22.10;95.20;;;;;;5001005;28;20232;-81
2023/05/22 06:44:21;;;;;;;8.18;4.18;;;22.30;94.90;;;;;;5004134;28;20229;-79
2023/05/22 06:46:53;;;;;;;4.35;3.80;;;22.40;94.40;;;;;;5021236;28;21142;-82
2023/05/22 06:49:25;;;;;;;4.20;3.58;;;22.60;94.00;;;;;;5019514;28;20638;-83
2023/05/22 06:51:54;;;;;;;5.13;3.67;;;22.60;93.50;;;;;;5025423;28;20315;-83
2023/05/22 06:54:21;;;;;;;4.57;3.90;;;22.70;93.40;;;;;;5025170;28;20218;-84
2023/05/22 06:56:50;;;;;;;4.35;3.70;;;22.80;93.80;;;;;;5028911;28;20994;-82
2023/05/22 06:59:20;;;;;;;5.30;3.58;;;22.90;93.30;;;;;;5026651;28;20312;-83
2023/05/22 07:01:52;;;;;;;4.20;3.50;;;23.00;93.10;;;;;;5004118;28;20711;-84
2023/05/22 07:04:30;;;;;;;5.82;3.70;;;23.20;93.10;;;;;;5022981;28;20706;-81
2023/05/22 07:07:00;;;;;;;4.45;3.35;;;23.30;92.40;;;;;;5006534;28;20460;-83
2023/05/22 07:09:28;;;;;;;4.35;3.35;;;23.50;92.60;;;;;;5023816;28;20304;-83
2023/05/22 07:11:55;;;;;;;5.18;3.30;;;23.70;92.10;;;;;;5022870;28;20229;-84
2023/05/22 07:14:21;;;;;;;4.43;3.30;;;24.00;92.30;;;;;;5010157;28;20619;-82
2023/05/22 07:16:48;;;;;;;5.70;3.50;;;24.30;92.00;;;;;;5008179;28;20769;-83
2023/05/22 07:19:20;;;;;;;3.78;3.47;;;24.70;91.70;;;;;;5022916;28;20221;-82
2023/05/22 07:21:49;;;;;;;5.18;3.50;;;25.20;91.20;;;;;;5029832;28;20232;-84
2023/05/22 07:24:19;;;;;;;6.07;3.15;;;25.70;90.50;;;;;;5033629;28;20233;-87
2023/05/22 07:26:45;;;;;;;3.70;3.25;;;26.20;90.20;;;;;;5021638;28;20814;-82
2023/05/22 07:29:13;;;;;;;3.72;3.30;;;26.90;88.90;;;;;;5024454;28;20228;-82
2023/05/22 07:31:41;;;;;;;3.47;3.17;;;27.50;86.80;;;;;;5025048;28;20707;-83
2023/05/22 07:34:08;;;;;;;4.90;3.20;;;28.00;84.20;;;;;;5023353;28;20221;-83
2023/05/22 07:36:35;;;;;;;5.35;3.03;;;28.60;82.50;;;;;;5011647;28;20704;-84
2023/05/22 07:39:05;;;;;;;3.47;2.72;;;29.10;80.50;;;;;;5023965;28;20468;-84
2023/05/22 07:41:35;;;;;;;7.07;3.53;;;29.50;77.90;;;;;;5020118;28;20495;-84
2023/05/22 07:44:02;;;;;;;4.70;3.28;;;30.00;77.60;;;;;;5024142;28;20228;-82
2023/05/22 07:46:34;;;;;;;3.90;2.70;;;30.40;75.20;;;;;;5024539;28;20785;-82
2023/05/22 07:49:09;;;;;;;4.82;2.85;;;30.90;73.10;;;;;;5027176;28;20248;-83
2023/05/22 07:51:36;;;;;;;5.88;3.33;;;31.40;69.50;;;;;;5024044;28;20225;-82
2023/05/22 07:54:04;;;;;;;5.25;3.15;;;31.70;68.80;;;;;;5032498;28;20229;-83
2023/05/22 07:56:31;;;;;;;4.28;2.80;;;32.00;65.70;;;;;;5004721;28;20232;-85
2023/05/22 07:58:59;;;;;;;4.97;3.20;;;32.30;65.60;;;;;;5027456;28;20813;-85
2023/05/22 08:01:26;;;;;;;3.40;3.05;;;32.50;65.10;;;;;;5012141;28;20208;-83
2023/05/22 08:03:53;;;;;;;3.83;2.65;;;32.80;63.90;;;;;;5033815;22;20831;-75
2023/05/22 08:06:21;;;;;;;4.30;2.78;;;33.10;63.00;;;;;;5016249;28;20656;-75
2023/05/22 08:08:48;;;;;;;4.45;2.90;;;33.30;61.80;;;;;;5015605;28;20245;-75
2023/05/22 08:11:16;;;;;;;4.72;3.08;;;33.60;60.80;;;;;;5020916;28;20242;-75
2023/05/22 08:13:43;;;;;;;6.82;3.05;;;33.80;58.90;;;;;;5020795;28;20240;-75
2023/05/22 08:16:09;;;;;;;4.15;3.40;;;34.00;57.10;;;;;;5014169;28;20336;-75
2023/05/22 08:18:36;;;;;;;5.05;2.70;;;34.10;57.70;;;;;;5015061;28;20229;-75
2023/05/22 08:21:03;;;;;;;3.72;2.65;;;34.10;57.20;;;;;;5011937;28;20229;-75
2023/05/22 08:23:30;;;;;;;2.92;2.53;;;34.10;55.70;;;;;;5018219;28;20679;-75
2023/05/22 08:25:56;;;;;;;5.80;3.08;;;34.00;55.00;;;;;;5012156;28;20696;-75
2023/05/22 08:28:24;;;;;;;3.03;2.70;;;33.80;54.50;;;;;;5017096;28;20244;-76
2023/05/22 08:30:53;;;;;;;5.50;2.80;;;33.60;53.70;;;;;;5006264;28;20253;-76
2023/05/22 08:33:19;;;;;;;7.32;2.97;;;33.50;53.40;;;;;;5013022;28;20227;-75
2023/05/22 08:35:46;;;;;;;4.28;2.50;;;33.40;53.10;;;;;;5010095;28;20240;-75
2023/05/22 08:38:13;;;;;;;4.10;3.08;;;33.20;52.10;;;;;;5012935;28;20239;-75
2023/05/22 08:40:40;;;;;;;4.75;2.70;;;33.10;52.50;;;;;;5015821;28;20233;-75
2023/05/22 08:43:07;;;;;;;3.63;2.50;;;33.10;52.90;;;;;;5016010;28;20529;-76
2023/05/22 08:45:35;;;;;;;3.25;2.60;;;33.10;53.20;;;;;;5016782;28;20231;-76
2023/05/22 08:48:05;;;;;;;5.05;2.40;;;33.10;52.70;;;;;;5021299;28;20228;-75
2023/05/22 08:50:32;;;;;;;9.50;2.67;;;33.20;52.10;;;;;;5005457;28;20229;-75
2023/05/22 08:53:01;;;;;;;2.78;2.58;;;33.20;51.40;;;;;;5011610;28;20310;-75
2023/05/22 08:55:29;;;;;;;3.45;2.40;;;33.10;51.90;;;;;;5009364;28;20221;-76
2023/05/22 08:57:56;;;;;;;4.22;2.97;;;33.10;51.70;;;;;;5011052;28;20868;-75
2023/05/22 09:00:23;;;;;;;4.35;3.20;;;33.10;51.30;;;;;;5007218;28;20233;-75
2023/05/22 09:02:54;;;;;;;2.97;2.50;;;33.00;49.50;;;;;;5004640;28;20827;-75
2023/05/22 09:05:25;;;;;;;3.80;2.67;;;33.10;51.10;;;;;;5015340;28;20228;-76
2023/05/22 09:07:52;;;;;;;5.88;2.70;;;33.10;50.70;;;;;;5032422;28;20239;-75
2023/05/22 09:10:19;;;;;;;5.10;2.83;;;33.20;49.60;;;;;;5007813;28;20225;-76
2023/05/22 09:13:02;;;;;;;5.38;2.75;;;33.30;50.90;;;;;;5030850;28;20243;-75
2023/05/22 09:15:30;;;;;;;4.20;2.70;;;33.50;51.30;;;;;;5011930;28;20241;-75
2023/05/22 09:17:58;;;;;;;6.07;3.00;;;33.70;51.10;;;;;;5005232;28;20274;-76
2023/05/22 09:20:25;;;;;;;3.47;2.70;;;34.00;50.50;;;;;;5004870;28;20233;-76
2023/05/22 09:22:52;;;;;;;3.28;3.03;;;34.20;50.50;;;;;;5015132;28;20244;-76
2023/05/22 09:25:19;;;;;;;4.10;2.67;;;34.50;50.60;;;;;;5015556;28;20239;-76
2023/05/22 09:27:46;;;;;;;3.53;3.03;;;34.80;50.30;;;;;;5018499;28;20244;-76
2023/05/22 09:30:16;;;;;;;3.72;3.00;;;35.00;50.30;;;;;;5003241;28;20223;-76
2023/05/22 09:32:43;;;;;;;3.05;2.70;;;35.30;48.70;;;;;;5014077;28;20220;-76
2023/05/22 09:35:11;;;;;;;3.60;2.40;;;35.60;49.00;;;;;;5012491;28;20324;-76
2023/05/22 09:37:39;;;;;;;2.85;2.63;;;35.80;48.10;;;;;;5010821;28;20232;-76
2023/05/22 09:40:07;;;;;;;5.15;2.90;;;36.10;46.60;;;;;;5008721;28;20753;-76
2023/05/22 09:42:34;;;;;;;3.15;2.63;;;36.30;46.00;;;;;;5012812;28;20597;-76
2023/05/22 09:45:05;;;;;;;3.80;2.90;;;36.40;46.20;;;;;;5011907;28;20256;-76
2023/05/22 09:47:32;;;;;;;3.55;2.65;;;36.50;45.70;;;;;;5014907;28;20642;-76
2023/05/22 09:50:00;;;;;;;6.63;2.92;;;36.70;46.70;;;;;;5011745;28;20415;-76
2023/05/22 09:52:28;;;;;;;3.40;2.88;;;36.90;45.70;;;;;;5016664;28;20221;-76
2023/05/22 09:54:56;;;;;;;4.43;2.72;;;36.80;44.20;;;;;;5009437;28;20233;-76
2023/05/22 09:57:25;;;;;;;5.07;2.72;;;36.90;44.00;;;;;;5010742;28;20335;-76
2023/05/22 09:59:56;;;;;;;8.57;3.13;;;36.80;44.60;;;;;;5013278;28;20236;-76
2023/05/22 10:02:24;;;;;;;2.92;2.72;;;36.90;44.30;;;;;;5009061;28;20292;-76
2023/05/22 10:04:52;;;;;;;2.90;2.60;;;37.00;44.10;;;;;;5011526;28;20229;-76
2023/05/22 10:07:21;;;;;;;2.60;2.40;;;37.00;43.80;;;;;;5010496;28;20220;-76
2023/05/22 10:09:52;;;;;;;3.97;2.90;;;37.10;43.50;;;;;;5013861;28;20221;-76
2023/05/22 10:12:21;;;;;;;4.88;2.60;;;37.20;43.20;;;;;;5006316;28;20307;-76
2023/05/22 10:14:48;;;;;;;3.40;2.60;;;37.20;42.70;;;;;;5011945;28;20778;-76
2023/05/22 10:17:16;;;;;;;4.32;2.60;;;37.40;43.60;;;;;;5011541;28;20323;-76
2023/05/22 10:19:43;;;;;;;4.80;3.10;;;37.60;43.00;;;;;;5015356;28;20234;-76
2023/05/22 10:22:19;;;;;;;6.18;2.88;;;37.80;42.70;;;;;;5015462;28;20232;-76
2023/05/22 10:24:46;;;;;;;5.55;2.67;;;38.00;41.90;;;;;;5009385;28;20524;-76
2023/05/22 10:27:14;;;;;;;4.82;2.78;;;38.20;42.20;;;;;;5010322;28;20221;-76
2023/05/22 10:29:48;;;;;;;4.20;2.60;;;38.40;41.50;;;;;;5017731;28;20221;-76
2023/05/22 10:32:23;;;;;;;3.78;2.53;;;38.60;41.30;;;;;;5006116;28;20684;-76
2023/05/22 10:35:02;;;;;;;4.35;2.60;;;38.70;40.70;;;;;;5015725;28;20472;-76
2023/05/22 10:37:42;;;;;;;3.30;2.80;;;38.80;40.20;;;;;;5016496;28;20221;-76
2023/05/22 10:40:12;;;;;;;3.25;2.45;;;38.80;39.70;;;;;;5006708;28;20221;-76
2023/05/22 10:42:40;;;;;;;3.50;2.78;;;38.70;39.80;;;;;;5018371;28;20699;-76
2023/05/22 10:45:08;;;;;;;3.10;2.60;;;38.60;39.40;;;;;;5016157;28;20471;-76
2023/05/22 10:47:35;;;;;;;5.40;2.83;;;38.40;39.60;;;;;;5009000;28;20221;-76
2023/05/22 10:50:09;;;;;;;3.88;2.20;;;38.20;39.20;;;;;;5008655;28;20240;-76
2023/05/22 10:52:36;;;;;;;3.08;2.42;;;38.00;38.80;;;;;;5011113;28;20442;-76
2023/05/22 10:55:07;;;;;;;2.75;2.40;;;37.80;39.10;;;;;;5016222;28;20239;-76
2023/05/22 10:57:36;;;;;;;3.75;2.60;;;37.50;38.40;;;;;;5010812;28;20585;-76
2023/05/22 11:00:10;;;;;;;3.65;2.70;;;37.30;38.60;;;;;;5024359;28;20224;-76
2023/05/22 11:02:39;;;;;;;3.58;2.40;;;37.00;38.20;;;;;;5022814;28;20232;-76
2023/05/22 11:05:35;;;;;;;4.03;2.65;;;36.80;39.00;;;;;;5021122;28;20228;-76
2023/05/22 11:08:36;;;;;;;3.22;2.63;;;36.60;39.50;;;;;;5011405;28;20216;-75
2023/05/22 11:11:11;;;;;;;3.10;2.80;;;36.40;38.90;;;;;;5014668;28;20286;-76
2023/05/22 11:13:38;;;;;;;5.72;2.92;;;36.20;39.10;;;;;;5006115;28;20236;-76
2023/05/22 11:16:08;;;;;;;6.55;2.60;;;36.10;39.80;;;;;;5013311;28;20224;-76
2023/05/22 11:18:34;;;;;;;4.00;2.85;;;36.10;39.90;;;;;;5022245;28;20228;-76
2023/05/22 11:21:03;;;;;;;3.97;2.90;;;36.20;39.90;;;;;;5016075;28;20284;-76
2023/05/22 11:23:34;;;;;;;2.90;2.70;;;36.30;40.20;;;;;;5011656;28;20234;-76
2023/05/22 11:26:17;;;;;;;3.83;3.10;;;36.30;38.80;;;;;;5012097;28;20217;-76
2023/05/22 11:28:48;;;;;;;3.97;2.55;;;36.20;39.00;;;;;;5013809;28;20517;-76
2023/05/22 11:31:17;;;;;;;3.30;2.75;;;36.20;39.50;;;;;;5020309;28;20221;-76
2023/05/22 11:33:45;;;;;;;5.47;2.75;;;36.00;39.60;;;;;;5018313;28;20233;-76
2023/05/22 11:36:12;;;;;;;5.05;2.88;;;36.00;39.00;;;;;;5010383;28;20606;-76
2023/05/22 11:38:40;;;;;;;4.07;2.75;;;36.00;39.30;;;;;;5016680;28;20703;-76
2023/05/22 11:41:09;;;;;;;4.40;2.90;;;35.90;37.90;;;;;;5018312;28;20228;-76
2023/05/22 11:43:35;;;;;;;5.00;2.80;;;35.80;39.30;;;;;;5005567;28;20410;-76
2023/05/22 11:46:06;;;;;;;4.65;2.85;;;35.80;39.40;;;;;;5023170;28;20236;-76
2023/05/22 11:48:35;;;;;;;3.58;2.70;;;35.90;39.10;;;;;;5010262;28;20229;-75
2023/05/22 11:51:01;;;;;;;3.10;2.80;;;36.00;39.40;;;;;;5016519;28;20247;-76
2023/05/22 11:53:31;;;;;;;5.95;2.70;;;36.20;39.60;;;;;;5009842;28;20229;-76
2023/05/22 11:56:01;;;;;;;3.53;2.40;;;36.40;39.30;;;;;;5011913;28;20217;-76
2023/05/22 11:58:28;;;;;;;4.18;2.78;;;36.60;38.80;;;;;;5017378;28;20311;-76
2023/05/22 12:00:58;;;;;;;2.80;2.60;;;36.80;39.60;;;;;;5009583;28;20217;-76
2023/05/22 12:03:25;;;;;;;6.05;3.17;;;37.00;39.10;;;;;;5030847;28;20397;-76
2023/05/22 12:05:54;;;;;;;4.07;2.70;;;37.30;38.90;;;;;;5016507;28;20229;-76
2023/05/22 12:08:21;;;;;;;5.13;2.78;;;37.60;38.30;;;;;;5009606;28;20286;-76
2023/05/22 12:10:49;;;;;;;5.47;3.10;;;37.80;37.70;;;;;;5010859;28;20229;-76
2023/05/22 12:13:22;;;;;;;3.58;3.08;;;37.90;37.10;;;;;;5008056;28;20719;-75
2023/05/22 12:15:49;;;;;;;3.10;2.70;;;37.80;36.60;;;;;;5010243;28;20495;-76
2023/05/22 12:18:18;;;;;;;3.95;2.65;;;37.80;37.20;;;;;;5008570;28;20313;-76
2023/05/22 12:20:44;;;;;;;4.25;2.80;;;37.60;37.30;;;;;;5003772;28;20225;-76
2023/05/22 12:23:20;;;;;;;3.63;2.58;;;37.40;36.70;;;;;;5006577;28;20235;-76
2023/05/22 12:25:47;;;;;;;4.78;2.78;;;37.00;36.50;;;;;;5013727;28;20231;-76
2023/05/22 12:28:13;;;;;;;3.60;2.85;;;36.60;36.70;;;;;;5014252;28;20261;-76
2023/05/22 12:30:41;;;;;;;3.58;2.72;;;36.30;36.90;;;;;;5017513;28;20724;-76
2023/05/22 12:33:13;;;;;;;3.55;2.67;;;36.00;37.30;;;;;;5018745;28;20216;-76
2023/05/22 12:35:41;;;;;;;4.70;2.78;;;35.80;37.40;;;;;;5014788;28;20605;-76
2023/05/22 12:38:08;;;;;;;4.03;2.78;;;35.60;37.60;;;;;;5019994;28;20257;-76
2023/05/22 12:40:36;;;;;;;5.05;2.88;;;35.50;37.30;;;;;;5017602;28;20223;-76
2023/05/22 12:43:03;;;;;;;5.28;2.83;;;35.30;37.60;;;;;;5017423;28;20428;-76
2023/05/22 12:45:29;;;;;;;4.35;3.00;;;35.20;37.90;;;;;;5019664;28;20240;-76
2023/05/22 12:47:56;;;;;;;4.05;2.80;;;35.20;38.00;;;;;;5022693;28;20225;-76
2023/05/22 12:50:23;;;;;;;3.38;2.50;;;35.20;38.10;;;;;;5014972;28;21185;-76
2023/05/22 12:52:50;;;;;;;3.10;2.80;;;35.30;38.00;;;;;;5017634;28;20240;-76
2023/05/22 12:55:16;;;;;;;3.08;2.75;;;35.40;38.40;;;;;;5014387;28;20574;-76